Time;durP1;ratioP1;P1;durP2;ratioP2;P2;SDS_P1;SDS_P2;PMS_P1;PMS_P2;Temp;Humidity;BMP_temperature;BMP_pressure;BME280_temperature;BME280_humidity;BME280_pressure;Samples;Min_cycle;Max_cycle;Signal;HPM_P1;HPM_P2
2021/06/06 00:01:20;;;;;;;9.50;7.33;;;14.30;99.90;;;;;;4173175;28;20549;-64
2021/06/06 00:03:29;;;;;;;9.33;6.67;;;14.40;99.90;;;;;;4162673;28;20439;-63
2021/06/06 00:05:49;;;;;;;11.97;7.27;;;14.30;99.90;;;;;;4138836;28;20026;-62
2021/06/06 00:07:50;;;;;;;10.70;6.53;;;14.20;99.90;;;;;;4154593;28;20087;-62
2021/06/06 00:09:51;;;;;;;9.53;7.30;;;14.20;99.90;;;;;;4156313;28;20111;-63
2021/06/06 00:11:54;;;;;;;9.73;7.30;;;14.10;99.90;;;;;;4155090;28;20030;-63
2021/06/06 00:13:59;;;;;;;15.13;7.60;;;14.00;99.90;;;;;;4156083;28;20049;-62
2021/06/06 00:16:00;;;;;;;12.83;7.47;;;13.90;99.90;;;;;;4154788;28;20489;-63
2021/06/06 00:18:02;;;;;;;12.93;7.53;;;13.90;99.90;;;;;;4157667;28;20083;-63
2021/06/06 00:20:07;;;;;;;14.53;9.10;;;13.80;99.90;;;;;;4154759;28;20045;-62
2021/06/06 00:22:08;;;;;;;15.30;8.73;;;13.80;99.90;;;;;;4157447;28;20037;-63
2021/06/06 00:24:12;;;;;;;12.10;8.10;;;13.80;99.90;;;;;;4157613;28;20033;-62
2021/06/06 00:26:13;;;;;;;13.20;8.70;;;13.80;99.90;;;;;;4158739;28;20818;-63
2021/06/06 00:28:15;;;;;;;15.27;9.97;;;13.80;99.90;;;;;;4158586;28;20022;-63
2021/06/06 00:30:16;;;;;;;16.40;12.13;;;13.80;99.90;;;;;;4157950;28;20083;-63
2021/06/06 00:32:19;;;;;;;20.90;11.70;;;13.80;99.90;;;;;;4158437;28;20547;-63
2021/06/06 00:34:21;;;;;;;14.57;9.70;;;13.90;99.90;;;;;;4164161;28;20446;-63
2021/06/06 00:36:23;;;;;;;12.53;8.70;;;13.90;99.90;;;;;;4174904;28;20049;-62
2021/06/06 00:38:24;;;;;;;11.40;7.50;;;13.90;99.90;;;;;;4173692;28;20372;-64
2021/06/06 00:40:27;;;;;;;10.60;7.07;;;14.00;99.90;;;;;;4176292;28;20082;-63
2021/06/06 00:42:28;;;;;;;11.20;7.57;;;14.10;99.90;;;;;;4173737;28;20025;-64
2021/06/06 00:44:30;;;;;;;9.60;7.33;;;14.20;99.90;;;;;;4175581;28;20103;-64
2021/06/06 00:46:32;;;;;;;9.70;7.20;;;14.20;99.90;;;;;;4173865;28;20557;-63
2021/06/06 00:48:33;;;;;;;10.33;7.30;;;14.20;99.90;;;;;;4175648;28;20492;-62
2021/06/06 00:50:41;;;;;;;8.93;7.33;;;14.20;99.90;;;;;;4173043;28;20095;-62
2021/06/06 00:52:45;;;;;;;11.17;7.73;;;14.30;99.90;;;;;;4173881;28;20382;-63
2021/06/06 00:54:51;;;;;;;12.70;8.47;;;14.30;99.90;;;;;;4172834;28;20551;-62
2021/06/06 00:57:00;;;;;;;12.50;7.93;;;14.40;99.90;;;;;;4175076;28;20045;-63
2021/06/06 00:59:02;;;;;;;15.63;8.83;;;14.40;99.90;;;;;;4173672;28;20039;-63
2021/06/06 01:01:04;;;;;;;10.17;6.97;;;14.40;99.90;;;;;;4156619;28;20143;-63
2021/06/06 01:03:05;;;;;;;10.80;7.73;;;14.40;99.90;;;;;;4173928;28;20037;-62
2021/06/06 01:05:14;;;;;;;14.13;7.60;;;14.40;99.90;;;;;;4174501;28;20589;-63
2021/06/06 01:07:15;;;;;;;10.57;7.60;;;14.40;99.90;;;;;;4174056;28;20025;-62
2021/06/06 01:09:19;;;;;;;15.13;8.37;;;14.40;99.90;;;;;;4173451;28;20520;-63
2021/06/06 01:11:45;;;;;;;13.40;7.20;;;14.30;99.90;;;;;;4174552;28;20036;-63
2021/06/06 01:13:51;;;;;;;8.83;7.20;;;14.30;99.90;;;;;;4174632;28;20826;-63
2021/06/06 01:16:04;;;;;;;11.77;7.67;;;14.20;99.90;;;;;;4173981;28;20111;-62
2021/06/06 01:18:14;;;;;;;9.30;6.87;;;14.20;99.90;;;;;;4173908;28;20087;-62
2021/06/06 01:20:33;;;;;;;10.70;6.45;;;14.10;99.90;;;;;;4173145;28;20037;-63
2021/06/06 01:22:40;;;;;;;13.37;7.67;;;14.10;99.90;;;;;;4174306;28;20090;-62
2021/06/06 01:24:50;;;;;;;8.83;6.60;;;14.10;99.90;;;;;;4173621;28;20170;-63
2021/06/06 01:26:55;;;;;;;11.85;7.63;;;14.10;99.90;;;;;;4174753;28;20029;-63
2021/06/06 01:29:06;;;;;;;10.27;7.83;;;14.20;99.90;;;;;;4161045;28;20481;-63
2021/06/06 01:31:09;;;;;;;10.50;7.47;;;14.20;99.90;;;;;;4157588;28;20091;-63
2021/06/06 01:33:22;;;;;;;12.67;7.80;;;14.20;99.90;;;;;;4156892;28;20497;-62
2021/06/06 01:35:54;;;;;;;13.50;8.20;;;14.20;99.90;;;;;;4157513;28;20462;-64
2021/06/06 01:38:10;;;;;;;10.10;7.80;;;14.20;99.90;;;;;;4151411;28;20053;-63
2021/06/06 01:40:16;;;;;;;11.40;7.20;;;14.20;99.90;;;;;;4160680;28;20536;-62
2021/06/06 01:42:38;;;;;;;11.33;7.67;;;14.20;99.90;;;;;;4157027;28;20052;-62
2021/06/06 01:44:42;;;;;;;12.37;9.10;;;14.20;99.90;;;;;;4158140;28;20064;-62
2021/06/06 01:46:48;;;;;;;14.70;8.67;;;14.10;99.90;;;;;;4168768;28;20584;-62
2021/06/06 01:48:51;;;;;;;15.63;11.27;;;14.10;99.90;;;;;;4174404;28;20059;-62
2021/06/06 01:51:11;;;;;;;15.17;10.77;;;14.20;99.90;;;;;;4172828;28;20075;-62
2021/06/06 01:53:15;;;;;;;11.43;8.55;;;14.20;99.90;;;;;;4174669;28;20421;-63
2021/06/06 01:55:19;;;;;;;11.13;7.57;;;14.10;99.90;;;;;;4172327;28;20142;-62
2021/06/06 01:57:23;;;;;;;12.23;7.77;;;14.10;99.90;;;;;;4173795;28;20037;-62
2021/06/06 01:59:34;;;;;;;11.27;8.10;;;14.10;99.90;;;;;;4173354;28;20537;-63
2021/06/06 02:01:36;;;;;;;14.20;10.07;;;14.00;99.90;;;;;;4173667;28;20021;-63
2021/06/06 02:03:38;;;;;;;17.10;13.30;;;13.90;99.90;;;;;;4173037;28;20056;-63
2021/06/06 02:05:40;;;;;;;19.90;13.87;;;13.80;99.90;;;;;;4173323;28;20029;-63
2021/06/06 02:07:43;;;;;;;20.37;14.43;;;13.90;99.90;;;;;;4173266;28;20037;-62
2021/06/06 02:09:58;;;;;;;12.93;10.30;;;13.80;99.90;;;;;;4173209;28;20065;-62
2021/06/06 02:12:04;;;;;;;16.97;10.60;;;13.80;99.90;;;;;;4173888;28;20028;-62
2021/06/06 02:14:10;;;;;;;13.30;9.43;;;13.90;99.90;;;;;;4172528;28;20029;-63
2021/06/06 02:16:18;;;;;;;19.63;10.13;;;13.90;99.90;;;;;;4174112;28;20093;-63
2021/06/06 02:18:19;;;;;;;17.47;10.33;;;13.90;99.90;;;;;;4172881;28;20033;-62
2021/06/06 02:20:25;;;;;;;21.23;11.53;;;14.00;99.90;;;;;;4174010;28;20483;-65
2021/06/06 02:22:30;;;;;;;21.00;12.27;;;14.00;99.90;;;;;;4161787;28;20107;-63
2021/06/06 02:24:33;;;;;;;16.77;8.87;;;14.00;99.90;;;;;;4157561;28;20100;-62
2021/06/06 02:26:45;;;;;;;14.50;9.70;;;14.00;99.90;;;;;;4155998;28;20025;-64
2021/06/06 02:29:06;;;;;;;15.17;9.03;;;14.00;99.90;;;;;;4156998;28;20158;-63
2021/06/06 02:31:56;;;;;;;10.80;7.80;;;14.00;99.90;;;;;;4155725;28;20386;-63
2021/06/06 02:34:23;;;;;;;11.77;8.30;;;14.00;99.90;;;;;;4126185;28;20761;-64
2021/06/06 02:36:25;;;;;;;8.77;6.73;;;14.00;99.90;;;;;;4157190;28;20037;-63
2021/06/06 02:38:49;;;;;;;10.00;8.10;;;14.00;99.90;;;;;;4155286;28;20041;-64
2021/06/06 02:41:02;;;;;;;8.53;7.00;;;14.00;99.90;;;;;;4157201;28;20152;-64
2021/06/06 02:43:20;;;;;;;10.23;7.57;;;14.00;99.90;;;;;;4155594;28;20443;-63
2021/06/06 02:45:26;;;;;;;9.40;7.33;;;14.10;99.90;;;;;;4155616;28;20050;-63
2021/06/06 02:47:34;;;;;;;9.63;6.83;;;14.20;99.90;;;;;;4155337;28;20034;-63
2021/06/06 02:49:40;;;;;;;11.50;8.10;;;14.30;99.90;;;;;;4157312;28;20072;-63
2021/06/06 02:51:48;;;;;;;11.33;7.73;;;14.40;99.90;;;;;;4155843;28;20029;-63
2021/06/06 02:54:10;;;;;;;9.67;7.50;;;14.50;99.90;;;;;;4156761;28;20033;-63
2021/06/06 02:56:14;;;;;;;9.17;7.00;;;14.50;99.90;;;;;;4155082;28;20058;-63
2021/06/06 02:58:24;;;;;;;10.80;7.37;;;14.60;99.90;;;;;;4156865;28;20069;-64
2021/06/06 03:00:39;;;;;;;11.48;7.18;;;14.80;99.90;;;;;;4155843;28;20026;-63
2021/06/06 03:02:45;;;;;;;11.13;7.20;;;15.00;99.90;;;;;;4157208;28;20448;-63
2021/06/06 03:04:51;;;;;;;11.10;6.77;;;15.20;99.90;;;;;;4155425;28;20075;-63
2021/06/06 03:06:57;;;;;;;10.17;7.43;;;15.50;99.90;;;;;;4161167;28;20041;-63
2021/06/06 03:08:58;;;;;;;9.13;7.10;;;15.80;99.90;;;;;;4171207;28;20049;-63
2021/06/06 03:10:59;;;;;;;12.90;7.50;;;16.00;99.90;;;;;;4170988;28;20037;-63
2021/06/06 03:13:07;;;;;;;8.23;6.78;;;16.30;99.90;;;;;;4171142;28;20163;-63
2021/06/06 03:15:11;;;;;;;11.65;6.68;;;16.70;99.90;;;;;;4173183;28;20032;-63
2021/06/06 03:17:27;;;;;;;9.23;7.07;;;17.00;99.90;;;;;;4172065;28;20032;-63
2021/06/06 03:19:32;;;;;;;11.60;7.25;;;17.20;99.90;;;;;;4173019;28;20033;-61
2021/06/06 03:21:39;;;;;;;12.18;7.05;;;17.50;99.90;;;;;;4171837;28;20013;-62
2021/06/06 03:23:44;;;;;;;11.98;6.72;;;17.80;99.90;;;;;;4171552;28;20041;-62
2021/06/06 03:25:51;;;;;;;9.23;6.38;;;18.10;99.90;;;;;;4171421;28;20037;-63
2021/06/06 03:27:52;;;;;;;11.05;6.20;;;18.40;99.90;;;;;;4172688;28;20021;-63
2021/06/06 03:30:05;;;;;;;15.70;6.90;;;18.70;99.90;;;;;;4172045;28;20083;-63
2021/06/06 03:32:09;;;;;;;7.80;6.15;;;18.70;99.90;;;;;;4171275;28;20820;-63
2021/06/06 03:34:10;;;;;;;7.47;6.50;;;18.50;99.90;;;;;;4172715;28;20173;-63
2021/06/06 03:36:15;;;;;;;12.27;7.18;;;18.20;99.90;;;;;;4171726;28;20033;-63
2021/06/06 03:38:16;;;;;;;8.55;6.75;;;18.10;99.90;;;;;;4167307;28;20143;-63
2021/06/06 03:40:19;;;;;;;11.38;8.13;;;18.00;99.90;;;;;;4155580;28;20103;-63
2021/06/06 03:42:22;;;;;;;11.00;7.85;;;17.80;99.90;;;;;;4156524;28;20041;-63
2021/06/06 03:44:27;;;;;;;7.20;6.22;;;17.60;99.90;;;;;;4155095;28;20099;-63
2021/06/06 03:46:29;;;;;;;7.03;6.30;;;17.50;99.90;;;;;;4155606;28;20084;-64
2021/06/06 03:48:31;;;;;;;7.57;6.43;;;17.30;99.90;;;;;;4155225;28;20095;-63
2021/06/06 03:50:35;;;;;;;9.57;7.13;;;17.40;99.90;;;;;;4156362;28;20041;-63
2021/06/06 03:52:39;;;;;;;10.15;7.78;;;17.50;99.90;;;;;;4154309;28;20037;-63
2021/06/06 03:54:40;;;;;;;10.18;7.57;;;17.60;99.90;;;;;;4157017;28;20018;-62
2021/06/06 03:56:43;;;;;;;12.02;8.40;;;17.70;99.90;;;;;;4155508;28;20041;-63
2021/06/06 03:58:45;;;;;;;10.23;6.95;;;17.80;99.90;;;;;;4159684;28;20500;-64
2021/06/06 04:00:48;;;;;;;10.30;7.63;;;18.10;99.90;;;;;;4158786;28;20091;-63
2021/06/06 04:02:50;;;;;;;9.73;6.20;;;18.70;99.90;;;;;;4159472;28;20034;-63
2021/06/06 04:04:51;;;;;;;10.10;7.00;;;19.00;99.90;;;;;;4158171;28;20072;-63
2021/06/06 04:06:52;;;;;;;13.02;6.85;;;19.40;99.90;;;;;;4158326;28;20083;-64
2021/06/06 04:08:53;;;;;;;10.05;6.60;;;19.70;99.90;;;;;;4157920;28;20041;-64
2021/06/06 04:10:55;;;;;;;8.30;6.45;;;20.10;99.90;;;;;;4158149;28;20212;-64
2021/06/06 04:12:57;;;;;;;9.27;6.60;;;20.40;99.90;;;;;;4159029;28;20079;-63
2021/06/06 04:14:59;;;;;;;7.20;5.95;;;20.60;99.90;;;;;;4158130;28;20778;-63
2021/06/06 04:17:00;;;;;;;9.10;6.55;;;20.50;99.90;;;;;;4159299;28;20091;-63
2021/06/06 04:19:02;;;;;;;9.98;7.40;;;20.30;99.90;;;;;;4158102;28;20088;-62
2021/06/06 04:21:07;;;;;;;11.93;7.28;;;19.90;99.90;;;;;;4158908;28;20563;-62
2021/06/06 04:23:09;;;;;;;9.63;7.28;;;19.70;99.90;;;;;;4157350;28;20037;-63
2021/06/06 04:25:12;;;;;;;7.65;6.80;;;19.20;99.90;;;;;;4159517;28;20037;-63
2021/06/06 04:27:14;;;;;;;10.40;7.20;;;18.80;99.90;;;;;;4157039;28;20053;-62
2021/06/06 04:29:16;;;;;;;8.68;7.40;;;18.80;99.90;;;;;;4159219;28;20029;-63
2021/06/06 04:31:17;;;;;;;10.57;7.88;;;19.10;99.90;;;;;;4157202;28;20037;-62
2021/06/06 04:33:20;;;;;;;9.80;7.55;;;18.90;99.90;;;;;;4159100;28;20033;-62
2021/06/06 04:35:21;;;;;;;11.27;7.30;;;18.80;99.90;;;;;;4157432;28;20037;-61
2021/06/06 04:37:24;;;;;;;9.57;7.55;;;18.50;99.90;;;;;;4157912;28;20050;-63
2021/06/06 04:39:25;;;;;;;9.60;7.20;;;18.10;99.90;;;;;;4174482;28;20075;-62
2021/06/06 04:41:26;;;;;;;11.57;7.28;;;18.20;99.90;;;;;;4174198;28;20028;-63
2021/06/06 04:43:28;;;;;;;11.25;7.05;;;18.20;99.90;;;;;;4174100;28;20102;-62
2021/06/06 04:45:29;;;;;;;7.32;6.53;;;18.10;99.90;;;;;;4174090;28;20801;-62
2021/06/06 04:47:30;;;;;;;8.30;6.25;;;18.00;99.90;;;;;;4175174;28;20930;-63
2021/06/06 04:49:32;;;;;;;9.07;6.15;;;17.60;99.90;;;;;;4173498;28;20028;-62
2021/06/06 04:51:33;;;;;;;11.20;7.22;;;17.40;99.90;;;;;;4175339;28;20029;-64
2021/06/06 04:53:35;;;;;;;7.80;5.95;;;17.40;99.90;;;;;;4173419;28;20083;-63
2021/06/06 04:55:36;;;;;;;9.48;6.70;;;17.20;99.90;;;;;;4174421;28;20134;-63
2021/06/06 04:57:37;;;;;;;8.55;6.22;;;16.80;99.90;;;;;;4172160;28;20052;-63
2021/06/06 04:59:38;;;;;;;8.07;6.57;;;16.50;99.90;;;;;;4156690;28;20037;-62
2021/06/06 05:01:40;;;;;;;8.18;5.88;;;16.30;99.90;;;;;;4173397;28;20044;-63
2021/06/06 05:03:41;;;;;;;8.07;6.15;;;16.20;99.90;;;;;;4175180;28;20033;-62
2021/06/06 05:05:42;;;;;;;11.20;7.38;;;16.10;99.90;;;;;;4173582;28;20033;-61
2021/06/06 05:07:56;;;;;;;9.23;7.38;;;15.90;99.90;;;;;;4174061;28;20064;-63
2021/06/06 05:09:58;;;;;;;8.68;6.35;;;15.60;99.90;;;;;;4173711;28;20439;-62
2021/06/06 05:11:59;;;;;;;10.27;7.47;;;15.70;99.90;;;;;;4174792;28;20033;-64
2021/06/06 05:14:00;;;;;;;11.52;7.13;;;15.50;99.90;;;;;;4174212;28;20071;-65
2021/06/06 05:16:02;;;;;;;9.50;7.38;;;15.40;99.90;;;;;;4173667;28;20547;-63
2021/06/06 05:18:04;;;;;;;10.20;7.75;;;15.10;99.90;;;;;;4173718;28;20082;-63
2021/06/06 05:20:07;;;;;;;10.63;7.83;;;14.90;99.90;;;;;;4173029;28;20021;-63
2021/06/06 05:22:08;;;;;;;11.60;7.80;;;14.70;99.90;;;;;;4158258;28;20088;-63
2021/06/06 05:24:09;;;;;;;10.50;8.17;;;14.50;99.90;;;;;;4156661;28;20878;-63
2021/06/06 05:26:10;;;;;;;14.33;8.87;;;14.30;99.90;;;;;;4157436;28;20546;-64
2021/06/06 05:28:15;;;;;;;10.13;8.07;;;14.20;99.90;;;;;;4156910;28;20056;-63
2021/06/06 05:30:26;;;;;;;16.07;8.97;;;14.00;99.90;;;;;;4157727;28;20037;-62
2021/06/06 05:32:27;;;;;;;15.73;11.00;;;13.90;99.90;;;;;;4156689;28;20804;-63
2021/06/06 05:34:28;;;;;;;14.97;9.50;;;13.70;99.90;;;;;;4161758;28;20502;-62
2021/06/06 05:36:29;;;;;;;13.17;8.67;;;13.70;99.90;;;;;;4162505;28;20033;-63
2021/06/06 05:38:32;;;;;;;14.27;9.87;;;13.70;99.90;;;;;;4139783;28;20113;-62
2021/06/06 05:40:35;;;;;;;11.93;8.53;;;13.60;99.90;;;;;;4158494;28;20033;-64
2021/06/06 05:42:36;;;;;;;14.50;9.50;;;13.60;99.90;;;;;;4174492;28;20578;-64
2021/06/06 05:44:37;;;;;;;13.50;9.53;;;13.70;99.90;;;;;;4171700;28;20724;-63
2021/06/06 05:46:39;;;;;;;15.57;9.67;;;13.70;99.90;;;;;;4173910;28;20076;-62
2021/06/06 05:48:40;;;;;;;15.20;10.33;;;13.70;99.90;;;;;;4172878;28;20032;-61
2021/06/06 05:50:43;;;;;;;16.13;10.77;;;13.70;99.90;;;;;;4173410;28;20161;-61
2021/06/06 05:52:45;;;;;;;13.00;10.07;;;13.70;99.90;;;;;;4173062;28;20532;-62
2021/06/06 05:54:47;;;;;;;23.50;10.97;;;13.80;99.90;;;;;;4172748;28;20067;-64
2021/06/06 05:56:48;;;;;;;15.40;10.10;;;13.80;99.90;;;;;;4172780;28;20048;-61
2021/06/06 05:58:51;;;;;;;17.20;10.80;;;13.80;99.90;;;;;;4172596;28;20427;-63
2021/06/06 06:00:52;;;;;;;17.40;10.50;;;13.80;99.90;;;;;;4173063;28;20052;-61
2021/06/06 06:02:53;;;;;;;14.40;11.23;;;13.80;99.90;;;;;;4164230;28;20485;-62
2021/06/06 06:04:54;;;;;;;13.37;10.63;;;13.80;99.90;;;;;;4157531;28;20033;-61
2021/06/06 06:06:56;;;;;;;14.53;10.37;;;13.90;99.90;;;;;;4155940;28;20025;-62
2021/06/06 06:08:57;;;;;;;18.77;11.43;;;13.90;99.90;;;;;;4157084;28;20042;-63
2021/06/06 06:10:58;;;;;;;13.43;9.77;;;14.00;99.90;;;;;;4155085;28;20490;-63
2021/06/06 06:12:59;;;;;;;11.93;9.33;;;14.10;99.90;;;;;;4158503;28;20049;-63
2021/06/06 06:15:00;;;;;;;13.27;9.90;;;14.10;99.90;;;;;;4171198;28;20052;-61
2021/06/06 06:17:02;;;;;;;13.40;9.60;;;14.10;99.90;;;;;;4173062;28;20037;-64
2021/06/06 06:19:07;;;;;;;14.40;9.80;;;14.20;99.90;;;;;;4170568;28;20086;-63
2021/06/06 06:21:13;;;;;;;25.47;14.30;;;14.20;99.90;;;;;;4171323;28;20033;-63
2021/06/06 06:23:14;;;;;;;15.50;10.80;;;14.20;99.90;;;;;;4170926;28;20072;-63
2021/06/06 06:25:17;;;;;;;15.63;11.23;;;14.10;99.90;;;;;;4171696;28;20485;-63
2021/06/06 06:27:18;;;;;;;18.00;10.87;;;14.10;99.90;;;;;;4169757;28;20862;-62
2021/06/06 06:29:20;;;;;;;14.03;10.07;;;14.20;99.90;;;;;;4171055;28;20040;-62
2021/06/06 06:31:21;;;;;;;14.03;9.10;;;14.30;99.90;;;;;;4171675;28;20045;-62
2021/06/06 06:33:22;;;;;;;10.50;8.47;;;14.50;99.90;;;;;;4171332;28;20460;-62
2021/06/06 06:35:25;;;;;;;11.17;8.50;;;14.60;99.90;;;;;;4172943;28;20033;-62
2021/06/06 06:37:26;;;;;;;11.37;8.53;;;14.70;99.90;;;;;;4170658;28;20515;-62
2021/06/06 06:39:27;;;;;;;11.27;7.70;;;14.70;99.90;;;;;;4172191;28;20075;-63
2021/06/06 06:41:31;;;;;;;10.83;8.43;;;14.80;99.90;;;;;;4171195;28;20071;-62
2021/06/06 06:43:32;;;;;;;12.83;9.13;;;15.00;99.90;;;;;;4172809;28;20029;-62
2021/06/06 06:45:38;;;;;;;12.43;9.03;;;15.00;99.90;;;;;;4171700;28;20029;-63
2021/06/06 06:47:39;;;;;;;11.50;8.20;;;15.10;99.90;;;;;;4172365;28;20538;-63
2021/06/06 06:49:41;;;;;;;10.33;8.43;;;15.00;99.90;;;;;;4169546;28;20071;-61
2021/06/06 06:51:42;;;;;;;11.60;8.50;;;15.10;99.90;;;;;;4171420;28;20049;-62
2021/06/06 06:53:45;;;;;;;12.57;8.77;;;15.20;99.90;;;;;;4171113;28;20033;-63
2021/06/06 06:55:47;;;;;;;10.80;8.23;;;15.30;99.90;;;;;;4170885;28;20033;-63
2021/06/06 06:57:48;;;;;;;10.97;7.93;;;15.50;99.90;;;;;;4171420;28;20103;-63
2021/06/06 06:59:49;;;;;;;10.87;7.83;;;15.70;99.90;;;;;;4172182;28;20426;-63
2021/06/06 07:01:50;;;;;;;12.20;7.17;;;16.00;99.90;;;;;;4153079;28;20033;-62
2021/06/06 07:03:52;;;;;;;10.13;6.23;;;16.30;99.90;;;;;;4156278;28;20072;-65
2021/06/06 07:05:55;;;;;;;8.95;6.90;;;16.50;99.90;;;;;;4155875;28;20088;-64
2021/06/06 07:07:56;;;;;;;8.25;5.95;;;16.50;99.90;;;;;;4153290;28;20448;-62
2021/06/06 07:09:58;;;;;;;7.20;6.13;;;16.70;99.90;;;;;;4156321;28;20103;-62
2021/06/06 07:11:59;;;;;;;8.27;5.90;;;17.00;99.90;;;;;;4154489;28;20505;-65
2021/06/06 07:14:00;;;;;;;9.85;5.70;;;17.60;99.90;;;;;;4156645;28;20079;-64
2021/06/06 07:16:02;;;;;;;6.88;5.78;;;17.80;99.90;;;;;;4153599;28;20481;-63
2021/06/06 07:18:07;;;;;;;7.82;6.60;;;18.10;99.90;;;;;;4156064;28;20444;-62
2021/06/06 07:20:11;;;;;;;7.03;6.25;;;18.30;99.90;;;;;;4154785;28;20355;-63
2021/06/06 07:22:12;;;;;;;9.55;7.25;;;18.30;99.90;;;;;;4156368;28;20030;-64
2021/06/06 07:24:14;;;;;;;8.25;6.95;;;18.10;99.90;;;;;;4153774;28;20512;-62
2021/06/06 07:26:19;;;;;;;10.68;6.78;;;18.20;99.90;;;;;;4156278;28;20026;-64
2021/06/06 07:28:24;;;;;;;9.07;5.85;;;18.40;99.90;;;;;;4154708;28;20025;-64
2021/06/06 07:30:29;;;;;;;7.22;6.30;;;18.60;99.90;;;;;;4157803;28;20033;-61
2021/06/06 07:32:30;;;;;;;9.80;6.68;;;18.60;99.90;;;;;;4157968;28;20041;-64
2021/06/06 07:34:32;;;;;;;7.50;5.65;;;18.80;99.90;;;;;;4158936;28;20088;-67
2021/06/06 07:36:33;;;;;;;10.13;8.10;;;18.60;99.90;;;;;;4159044;28;20470;-63
2021/06/06 07:38:34;;;;;;;8.60;6.85;;;18.50;99.90;;;;;;4158311;28;20033;-66
2021/06/06 07:40:40;;;;;;;6.88;5.63;;;18.60;99.90;;;;;;4159320;28;20037;-65
2021/06/06 07:42:41;;;;;;;8.98;5.22;;;18.70;99.90;;;;;;4158466;28;20432;-67
2021/06/06 07:44:42;;;;;;;6.00;5.25;;;18.90;99.90;;;;;;4159525;28;20037;-65
2021/06/06 07:46:44;;;;;;;6.65;5.63;;;18.90;99.90;;;;;;4157803;28;20026;-66
2021/06/06 07:48:45;;;;;;;6.45;5.53;;;18.80;99.90;;;;;;4158990;28;20041;-67
2021/06/06 07:50:48;;;;;;;7.07;5.90;;;18.90;99.90;;;;;;4157874;28;20827;-64
2021/06/06 07:52:50;;;;;;;6.45;5.70;;;19.10;99.90;;;;;;4158301;28;20111;-64
2021/06/06 07:54:51;;;;;;;8.55;7.15;;;19.00;99.90;;;;;;4158860;28;20041;-65
2021/06/06 07:56:53;;;;;;;9.45;6.43;;;18.90;99.90;;;;;;4158510;28;20037;-64
2021/06/06 07:58:55;;;;;;;7.00;6.25;;;18.70;99.90;;;;;;4157786;28;20096;-63
2021/06/06 08:00:56;;;;;;;8.77;6.32;;;18.60;99.90;;;;;;4159307;28;20041;-63
2021/06/06 08:02:57;;;;;;;11.75;6.22;;;18.40;99.90;;;;;;4157965;28;20049;-63
2021/06/06 08:04:58;;;;;;;8.50;6.00;;;18.40;99.90;;;;;;4158491;28;20029;-64
2021/06/06 08:07:00;;;;;;;9.93;5.65;;;18.30;99.90;;;;;;4157857;28;20095;-64
2021/06/06 08:09:03;;;;;;;8.65;5.72;;;18.40;99.90;;;;;;4158040;28;20445;-64
2021/06/06 08:11:07;;;;;;;8.02;5.85;;;18.50;99.90;;;;;;4158085;28;20033;-62
2021/06/06 08:13:09;;;;;;;7.00;5.35;;;18.60;99.90;;;;;;4158056;28;20088;-64
2021/06/06 08:15:11;;;;;;;7.22;5.30;;;18.80;99.90;;;;;;4158050;28;20037;-63
2021/06/06 08:17:12;;;;;;;8.63;5.78;;;18.90;99.90;;;;;;4157145;28;20064;-62
2021/06/06 08:19:13;;;;;;;7.68;5.75;;;18.90;99.90;;;;;;4140617;28;20041;-64
2021/06/06 08:21:20;;;;;;;6.75;5.13;;;18.80;99.90;;;;;;4157588;28;20025;-63
2021/06/06 08:23:21;;;;;;;23.33;8.93;;;19.00;99.90;;;;;;4157897;28;20087;-63
2021/06/06 08:25:23;;;;;;;6.63;5.78;;;19.10;99.90;;;;;;4157009;28;20564;-63
2021/06/06 08:27:24;;;;;;;6.32;5.13;;;19.10;99.90;;;;;;4158909;28;20470;-63
2021/06/06 08:29:25;;;;;;;8.88;5.85;;;19.00;99.90;;;;;;4157478;28;20115;-66
2021/06/06 08:31:29;;;;;;;6.72;5.63;;;19.00;99.90;;;;;;4158577;28;20498;-63
2021/06/06 08:33:32;;;;;;;6.10;5.43;;;19.10;99.90;;;;;;4155949;28;20091;-64
2021/06/06 08:35:33;;;;;;;6.22;5.32;;;19.10;99.90;;;;;;4158694;28;20087;-61
2021/06/06 08:37:35;;;;;;;6.38;5.47;;;19.20;99.90;;;;;;4155650;28;20634;-62
2021/06/06 08:39:36;;;;;;;7.03;6.10;;;19.30;99.90;;;;;;4157627;28;20041;-63
2021/06/06 08:41:49;;;;;;;5.45;4.80;;;19.30;99.90;;;;;;4156225;28;20610;-64
2021/06/06 08:44:30;;;;;;;7.70;5.35;;;19.40;99.90;;;;;;4157716;28;20059;-64
2021/06/06 08:46:41;;;;;;;6.45;4.50;;;19.30;99.90;;;;;;4105932;28;20027;-64
2021/06/06 08:48:44;;;;;;;8.07;5.28;;;19.20;99.90;;;;;;4107680;28;20031;-64
2021/06/06 08:50:49;;;;;;;6.13;5.53;;;19.40;99.90;;;;;;4106759;28;20043;-64
2021/06/06 08:53:28;;;;;;;5.32;4.82;;;19.50;99.90;;;;;;4158002;28;20612;-65
2021/06/06 08:56:01;;;;;;;5.97;4.72;;;19.50;99.90;;;;;;4157111;28;20041;-65
2021/06/06 08:58:18;;;;;;;9.43;5.40;;;19.40;99.90;;;;;;4157920;28;20045;-65
2021/06/06 09:00:31;;;;;;;5.35;4.45;;;19.40;99.90;;;;;;4156578;28;20041;-63
2021/06/06 09:02:48;;;;;;;5.53;5.00;;;19.50;99.90;;;;;;4158010;28;20041;-64
2021/06/06 09:04:50;;;;;;;6.35;4.38;;;19.50;99.90;;;;;;4155353;28;20099;-64
2021/06/06 09:07:00;;;;;;;4.60;4.20;;;19.50;99.90;;;;;;4158137;28;20131;-64
2021/06/06 09:09:03;;;;;;;4.20;3.80;;;19.50;99.90;;;;;;4156240;28;20049;-63
2021/06/06 09:11:11;;;;;;;4.07;3.63;;;19.70;99.90;;;;;;4157505;28;20041;-64
2021/06/06 09:13:14;;;;;;;6.78;3.80;;;19.90;99.90;;;;;;4155228;28;20088;-64
2021/06/06 09:15:17;;;;;;;10.40;4.00;;;20.10;99.90;;;;;;4157261;28;20041;-64
2021/06/06 09:17:31;;;;;;;6.55;4.47;;;20.30;99.90;;;;;;4156091;28;20026;-63
2021/06/06 09:19:40;;;;;;;3.97;3.67;;;20.50;99.90;;;;;;4157656;28;20492;-64
2021/06/06 09:21:58;;;;;;;3.70;3.40;;;20.70;99.90;;;;;;4160493;28;20029;-65
2021/06/06 09:24:33;;;;;;;18.95;8.48;;;20.90;99.90;;;;;;4162554;28;20086;-64
2021/06/06 09:26:35;;;;;;;4.07;3.50;;;21.10;99.90;;;;;;4158139;28;20028;-63
2021/06/06 09:28:41;;;;;;;4.45;3.88;;;21.10;99.90;;;;;;4166211;28;20029;-64
2021/06/06 09:30:43;;;;;;;3.95;3.60;;;20.90;99.90;;;;;;4158129;28;20442;-64
2021/06/06 09:32:45;;;;;;;4.05;3.60;;;20.80;99.90;;;;;;4160506;28;20127;-64
2021/06/06 09:34:57;;;;;;;4.47;4.07;;;20.80;99.90;;;;;;4162190;28;20048;-64
2021/06/06 09:37:06;;;;;;;4.07;3.15;;;20.90;99.90;;;;;;4169737;28;20448;-64
2021/06/06 09:39:18;;;;;;;3.73;3.43;;;20.90;99.90;;;;;;4159882;28;20045;-62
2021/06/06 09:41:24;;;;;;;3.58;3.13;;;20.90;99.90;;;;;;4168976;28;20028;-63
2021/06/06 09:43:31;;;;;;;3.85;3.13;;;20.80;99.90;;;;;;4155322;28;20183;-63
2021/06/06 09:45:35;;;;;;;3.70;3.35;;;20.80;99.90;;;;;;4159450;28;20094;-62
2021/06/06 09:47:37;;;;;;;3.50;3.20;;;20.90;99.90;;;;;;4158756;28;20029;-62
2021/06/06 09:49:46;;;;;;;5.72;3.60;;;20.90;99.90;;;;;;4162581;28;20086;-64
2021/06/06 09:51:47;;;;;;;5.63;3.13;;;20.90;99.90;;;;;;4165255;28;20037;-63
2021/06/06 09:53:49;;;;;;;7.00;3.80;;;20.90;99.90;;;;;;4163985;28;20075;-64
2021/06/06 09:56:03;;;;;;;3.22;2.92;;;20.90;99.90;;;;;;4161373;28;20029;-63
2021/06/06 09:58:17;;;;;;;4.03;3.05;;;20.90;99.90;;;;;;4161520;28;20358;-62
2021/06/06 10:00:18;;;;;;;4.63;3.30;;;20.80;99.90;;;;;;4158836;28;20091;-62
2021/06/06 10:02:28;;;;;;;5.53;2.63;;;20.80;99.90;;;;;;4165184;28;20029;-62
2021/06/06 10:04:35;;;;;;;3.45;2.92;;;21.00;99.90;;;;;;4162718;28;20065;-64
2021/06/06 10:06:41;;;;;;;4.43;3.30;;;21.10;99.90;;;;;;4158029;28;20029;-63
2021/06/06 10:08:43;;;;;;;3.33;2.70;;;21.10;99.90;;;;;;4159383;28;20041;-63
2021/06/06 10:10:51;;;;;;;5.88;3.47;;;21.10;99.90;;;;;;4164685;28;20385;-64
2021/06/06 10:12:55;;;;;;;3.65;2.72;;;21.20;99.90;;;;;;4163575;28;20123;-63
2021/06/06 10:15:05;;;;;;;4.00;2.58;;;21.20;99.90;;;;;;4164508;28;20072;-63
2021/06/06 10:17:10;;;;;;;5.30;2.20;;;21.10;99.90;;;;;;4160704;28;20049;-63
2021/06/06 10:19:15;;;;;;;3.92;2.10;;;21.20;99.90;;;;;;4161603;28;20455;-62
2021/06/06 10:21:22;;;;;;;4.25;2.95;;;21.20;99.90;;;;;;4162782;28;20469;-62
2021/06/06 10:23:32;;;;;;;3.30;2.60;;;21.30;99.90;;;;;;4165439;28;20032;-63
2021/06/06 10:25:55;;;;;;;7.50;2.40;;;21.20;99.90;;;;;;4171750;28;20084;-62
2021/06/06 10:28:04;;;;;;;3.80;2.13;;;21.30;99.90;;;;;;4172675;28;20037;-63
2021/06/06 10:30:10;;;;;;;3.53;2.35;;;21.40;99.90;;;;;;4170951;28;20061;-63
2021/06/06 10:32:27;;;;;;;2.90;1.92;;;21.30;99.90;;;;;;4172696;28;20037;-62
2021/06/06 10:34:36;;;;;;;5.20;2.10;;;21.30;99.90;;;;;;4171373;28;20497;-62
2021/06/06 10:36:38;;;;;;;1.83;1.52;;;21.30;99.90;;;;;;4172675;28;20037;-64
2021/06/06 10:38:41;;;;;;;4.90;1.77;;;21.10;99.90;;;;;;4170931;28;20068;-63
2021/06/06 10:40:45;;;;;;;2.10;1.65;;;21.00;99.90;;;;;;4172737;28;20096;-63
2021/06/06 10:43:23;;;;;;;1.85;1.75;;;21.00;99.90;;;;;;4172308;28;20469;-63
2021/06/06 10:45:38;;;;;;;3.95;2.05;;;21.10;99.30;;;;;;4155102;28;20076;-65
2021/06/06 10:47:50;;;;;;;4.85;1.98;;;21.10;99.40;;;;;;4171799;28;20465;-64